Valor — WDD8691 — position and weather

sailwx.info

Track history (hours):
 
Tides and Currents Weather Stations Pressure Air Temp Water Temp Dewpoint Dewpoint Depression Visibility Wind Speed Wind Dir Waves Ship Positions

Valor

Owner: Crowley Marine Services, Inc., Seattle, WA. More information available from US FCC via Universal Licensing System and Coast Guard Vessel Documentation Center.

Last reported at 2015-Mar-04 22:33 UTC. Time now 2015-Mar-04 22:53 UTC.
Position N 37°49' W 122°19'.

Length 8 m; draft 5.5 m.

Type: Tug. MMSI: 367301480.

Date/timePositionNaut miles runAvg speedWind from/ knotsBaromVisibWave heightAir tempDewpointWater temp
2015-Mar-04 22:33N 37°49' W 122°19'0 0.1
2015-Mar-04 21:33N 37°49' W 122°19'0 0.1
2015-Mar-04 20:33N 37°49' W 122°19'0 0.0
2015-Mar-04 19:33N 37°49' W 122°19'2 1.7
2015-Mar-04 18:34N 37°48' W 122°18'0 0.4
2015-Mar-04 17:33N 37°48' W 122°18'1 0.9
2015-Mar-04 16:34N 37°48' W 122°19'2 1.6
2015-Mar-04 15:33N 37°49' W 122°19'0 0.0
2015-Mar-04 14:33N 37°49' W 122°19'0 0.0
2015-Mar-04 13:33N 37°49' W 122°19'0 0.0
2015-Mar-04 12:33N 37°49' W 122°19'0 0.0
2015-Mar-04 11:33N 37°49' W 122°19'0 0.0
2015-Mar-04 10:33N 37°49' W 122°19'0 0.0
2015-Mar-04 09:33N 37°49' W 122°19'0 0.0
2015-Mar-04 08:33N 37°49' W 122°19'0 0.0
2015-Mar-04 07:33N 37°49' W 122°19'0 0.0
2015-Mar-04 06:33N 37°49' W 122°19'0 0.0
2015-Mar-04 05:33N 37°49' W 122°19'0 0.0
2015-Mar-04 04:33N 37°49' W 122°19'0 0.0
2015-Mar-04 03:33N 37°49' W 122°19'0 0.0
2015-Mar-04 02:33N 37°49' W 122°19'0 0.0
2015-Mar-04 01:33N 37°49' W 122°19'0 0.0
2015-Mar-04 00:33N 37°49' W 122°19'0 0.0
2015-Mar-03 23:33N 37°49' W 122°19'0 0.0
2015-Mar-03 22:33N 37°49' W 122°19'0 0.0
2015-Mar-03 21:33N 37°49' W 122°19'0 0.0
2015-Mar-03 20:33N 37°49' W 122°19'0 0.0
2015-Mar-03 19:33N 37°49' W 122°19'0 0.0
2015-Mar-03 18:33N 37°49' W 122°19'0 0.0
2015-Mar-03 17:33N 37°49' W 122°19'0 0.0
2015-Mar-03 16:33N 37°49' W 122°19'0 0.0
2015-Mar-03 15:33N 37°49' W 122°19'0 0.0
2015-Mar-03 14:13N 37°49' W 122°19'0 0.0
2015-Mar-03 13:33N 37°49' W 122°19'0 0.0
2015-Mar-03 12:33N 37°49' W 122°19'0 0.0
2015-Mar-03 11:33N 37°49' W 122°19'0 0.0
2015-Mar-03 10:33N 37°49' W 122°19'0 0.0
2015-Mar-03 09:33N 37°49' W 122°19'0 0.0
2015-Mar-03 08:33N 37°49' W 122°19'0 0.0
2015-Mar-03 07:33N 37°49' W 122°19'0 0.0
2015-Mar-03 06:33N 37°49' W 122°19'0 0.0
2015-Mar-03 05:33N 37°49' W 122°19'0 0.0
2015-Mar-03 04:33N 37°49' W 122°19'0 0.0
2015-Mar-03 03:33N 37°49' W 122°19'0 0.0
2015-Mar-03 02:33N 37°49' W 122°19'0 0.0
2015-Mar-03 01:33N 37°49' W 122°19'0 0.0
2015-Mar-03 00:33N 37°49' W 122°19'0 0.0
2015-Mar-02 23:33N 37°49' W 122°19'0 0.0
2015-Mar-02 22:33N 37°49' W 122°19'0 0.0
2015-Mar-02 21:33N 37°49' W 122°19'0 0.0
2015-Mar-02 20:33N 37°49' W 122°19'0 0.0
2015-Mar-02 19:33N 37°49' W 122°19'0 0.0
2015-Mar-02 18:33N 37°49' W 122°19'0 0.0
2015-Mar-02 17:33N 37°49' W 122°19'0 0.0
2015-Mar-02 16:33N 37°49' W 122°19'0 0.0
2015-Mar-02 15:33N 37°49' W 122°19'0 0.0
2015-Mar-02 14:33N 37°49' W 122°19'0 0.0
2015-Mar-02 13:33N 37°49' W 122°19'0 0.0
2015-Mar-02 12:33N 37°49' W 122°19'0 0.0
2015-Mar-02 11:33N 37°49' W 122°19'4 4.3
2015-Mar-02 10:33N 37°49' W 122°24'6 5.5
2015-Mar-02 09:31N 37°49' W 122°31'6 6.4
2015-Mar-02 08:32N 37°54' W 122°26'8 8.5
2015-Mar-02 07:33N 38°02' W 122°23'9 8.2
2015-Mar-02 06:25N 38°03' W 122°11'3 3.1
2015-Mar-02 05:33N 38°02' W 122°08'2 1.0
2015-Mar-02 03:27N 38°03' W 122°06'3 1.9
2015-Mar-02 02:05N 38°02' W 122°09'1 0.1
2015-Mar-01 17:31N 38°02' W 122°08'3 2.2
2015-Mar-01 16:18N 38°03' W 122°11'0 0.1
2015-Mar-01 11:32N 38°03' W 122°11'1 0.7
2015-Mar-01 09:30N 38°04' W 122°13'1 0.3
2015-Mar-01 04:13N 38°03' W 122°15'6 8.9
2015-Mar-01 03:30N 38°01' W 122°22'9 9.5
2015-Mar-01 02:32N 37°53' W 122°24'6 5.8
2015-Mar-01 01:33N 37°49' W 122°19'0 0.0
2015-Mar-01 00:33N 37°49' W 122°19'0 0.0
2015-Feb-28 23:33N 37°49' W 122°19'0 0.0
2015-Feb-28 22:33N 37°49' W 122°19'0 0.0
2015-Feb-28 21:33N 37°49' W 122°19'0 0.0
2015-Feb-28 20:33N 37°49' W 122°19'0 0.0
2015-Feb-28 19:33N 37°49' W 122°19'1 0.8
2015-Feb-28 18:33N 37°49' W 122°19'8 7.5
2015-Feb-28 17:32N 37°49' W 122°29'0 0.4
2015-Feb-28 16:32N 37°48' W 122°30'1 0.9
2015-Feb-28 15:33N 37°49' W 122°29'4 3.6
2015-Feb-28 14:33N 37°51' W 122°25'4 4.3
2015-Feb-28 13:33N 37°55' W 122°27'4 4.1
2015-Feb-28 12:31N 37°59' W 122°26'4 4.2
2015-Feb-28 11:33N 38°02' W 122°22'5 4.6
2015-Feb-28 10:33N 38°03' W 122°17'7 0.7
2015-Feb-28 01:12N 38°02' W 122°08'0 0.0
2015-Feb-27 12:25N 38°02' W 122°08'1 0.0
2015-Feb-26 19:09N 38°02' W 122°09'1 0.9
2015-Feb-26 17:28N 38°02' W 122°07'9 8.7
2015-Feb-26 16:30N 38°03' W 122°18'9 9.2
2015-Feb-26 15:33N 37°58' W 122°27'8 7.6
2015-Feb-26 14:33N 37°50' W 122°27'3 3.4
2015-Feb-26 13:33N 37°49' W 122°31'1 1.0
2015-Feb-26 12:33N 37°49' W 122°30'7 7.4
2015-Feb-26 11:33N 37°56' W 122°26'8 7.6
2015-Feb-26 10:33N 38°02' W 122°21'5 3.6
2015-Feb-26 09:12N 38°03' W 122°15'0 0.0
2015-Feb-26 06:25N 38°03' W 122°15'0 0.0
2015-Feb-26 05:33N 38°03' W 122°15'0 0.0
2015-Feb-26 04:33N 38°03' W 122°15'4 4.3
2015-Feb-26 03:31N 38°02' W 122°09'1 1.0
2015-Feb-26 02:26N 38°02' W 122°08'3 3.4
2015-Feb-26 01:33N 38°03' W 122°11'9 9.3
2015-Feb-26 00:33N 38°02' W 122°23'9 9.1
2015-Feb-25 23:33N 37°53' W 122°25'6 6.2
2015-Feb-25 22:32N 37°48' W 122°30'2 1.6
2015-Feb-25 21:33N 37°49' W 122°29'8 8.0
2015-Feb-25 20:33N 37°49' W 122°19'0 0.2
2015-Feb-25 19:33N 37°49' W 122°19'0 0.0
2015-Feb-25 18:33N 37°49' W 122°19'0 0.0
2015-Feb-25 17:33N 37°49' W 122°19'6 6.0
2015-Feb-25 16:33N 37°53' W 122°25'3 3.1
2015-Feb-25 15:33N 37°55' W 122°22'1 1.3
2015-Feb-25 14:33N 37°54' W 122°24'1 1.4
2015-Feb-25 13:33N 37°54' W 122°25'1 1.4
2015-Feb-25 12:33N 37°55' W 122°25'0 0.0
2015-Feb-25 11:33N 37°55' W 122°25'0 0.0
2015-Feb-25 10:33N 37°55' W 122°25'0 0.0
2015-Feb-25 09:33N 37°55' W 122°25'0 0.0
2015-Feb-25 08:33N 37°55' W 122°25'0 0.5
2015-Feb-25 07:33N 37°56' W 122°25'3 2.8
2015-Feb-25 06:33N 37°53' W 122°25'5 5.5
2015-Feb-25 05:33N 37°49' W 122°20'0 0.0
2015-Feb-25 04:33N 37°49' W 122°20'0 0.0
2015-Feb-25 03:33N 37°49' W 122°20'1 0.6
2015-Feb-25 02:34N 37°48' W 122°21'2 1.7
2015-Feb-25 01:33N 37°48' W 122°18'2 1.7
2015-Feb-25 00:33N 37°49' W 122°19'0 0.0
2015-Feb-24 23:34N 37°49' W 122°19'0 0.0
2015-Feb-24 22:33N 37°49' W 122°19'0 0.0
2015-Feb-24 21:33N 37°49' W 122°19'0 0.0
2015-Feb-24 20:33N 37°49' W 122°19'0 0.0
2015-Feb-24 19:33N 37°49' W 122°19'0 0.0
2015-Feb-24 18:33N 37°49' W 122°19'2 1.8
2015-Feb-24 17:33N 37°48' W 122°21'2 2.0
2015-Feb-24 16:33N 37°48' W 122°18'1 0.9
2015-Feb-24 15:33N 37°48' W 122°19'2 1.5
2015-Feb-24 14:33N 37°49' W 122°19'0 0.0
2015-Feb-24 13:33N 37°49' W 122°19'0 0.0
2015-Feb-24 12:33N 37°49' W 122°19'0 0.0
2015-Feb-24 11:33N 37°49' W 122°19'0 0.0
2015-Feb-24 10:33N 37°49' W 122°19'0 0.0
2015-Feb-24 09:33N 37°49' W 122°19'0 0.0
2015-Feb-24 08:33N 37°49' W 122°19'0 0.0
2015-Feb-24 07:33N 37°49' W 122°19'0 0.0
2015-Feb-24 06:33N 37°49' W 122°19'0 0.0
2015-Feb-24 05:33N 37°49' W 122°19'1 0.9
2015-Feb-24 04:33N 37°49' W 122°19'0 0.2
2015-Feb-24 03:33N 37°49' W 122°20'0 0.2
2015-Feb-24 02:33N 37°49' W 122°19'0 0.0
2015-Feb-24 01:33N 37°49' W 122°19'1 0.9
2015-Feb-24 00:33N 37°49' W 122°19'0 0.0
2015-Feb-23 23:33N 37°49' W 122°19'0 0.0
2015-Feb-23 22:33N 37°49' W 122°19'0 0.0
2015-Feb-23 21:33N 37°49' W 122°19'0 0.0
2015-Feb-23 20:33N 37°49' W 122°19'0 0.0
2015-Feb-23 19:33N 37°49' W 122°19'0 0.0
2015-Feb-23 18:33N 37°49' W 122°19'0 0.0
2015-Feb-23 17:33N 37°49' W 122°19'1 0.9
2015-Feb-23 16:33N 37°49' W 122°20'0 0.2
2015-Feb-23 15:33N 37°49' W 122°19'1 0.7
2015-Feb-23 14:33N 37°49' W 122°19'0 0.0
2015-Feb-23 13:33N 37°49' W 122°19'0 0.0
2015-Feb-23 12:33N 37°49' W 122°19'0 0.0
2015-Feb-23 11:33N 37°49' W 122°19'0 0.0
2015-Feb-23 10:33N 37°49' W 122°19'0 0.0
2015-Feb-23 09:33N 37°49' W 122°19'0 0.0
2015-Feb-23 08:33N 37°49' W 122°19'0 0.0
2015-Feb-23 07:33N 37°49' W 122°19'0 0.0
2015-Feb-23 06:33N 37°49' W 122°19'0 0.0
2015-Feb-23 05:33N 37°49' W 122°19'0 0.0
2015-Feb-23 04:33N 37°49' W 122°19'0 0.0
2015-Feb-23 03:33N 37°49' W 122°19'0 0.0
2015-Feb-23 02:33N 37°49' W 122°19'0 0.0
2015-Feb-23 01:33N 37°49' W 122°19'0 0.0
2015-Feb-23 00:33N 37°49' W 122°19'6 5.9
2015-Feb-22 23:33N 37°53' W 122°25'3 2.8
2015-Feb-22 22:33N 37°55' W 122°22'  
Track history (hours):
 
Tides and Currents Weather Stations Pressure Air Temp Water Temp Dewpoint Dewpoint Depression Visibility Wind Speed Wind Dir Waves Ship Positions

Valor

Owner: Crowley Marine Services, Inc., Seattle, WA. More information available from US FCC via Universal Licensing System and Coast Guard Vessel Documentation Center.

Last reported at 2015-Mar-04 22:33 UTC. Time now 2015-Mar-04 22:53 UTC.
Position N 37°49' W 122°19'.

Length 8 m; draft 5.5 m.

Type: Tug. MMSI: 367301480.

Date/timePositionNaut miles runAvg speedWind from/ knotsBaromVisibWave heightAir tempDewpointWater temp
2015-Mar-04 22:33N 37°49' W 122°19'0 0.1
2015-Mar-04 21:33N 37°49' W 122°19'0 0.1
2015-Mar-04 20:33N 37°49' W 122°19'0 0.0
2015-Mar-04 19:33N 37°49' W 122°19'2 1.7
2015-Mar-04 18:34N 37°48' W 122°18'0 0.4
2015-Mar-04 17:33N 37°48' W 122°18'1 0.9
2015-Mar-04 16:34N 37°48' W 122°19'2 1.6
2015-Mar-04 15:33N 37°49' W 122°19'0 0.0
2015-Mar-04 14:33N 37°49' W 122°19'0 0.0
2015-Mar-04 13:33N 37°49' W 122°19'0 0.0
2015-Mar-04 12:33N 37°49' W 122°19'0 0.0
2015-Mar-04 11:33N 37°49' W 122°19'0 0.0
2015-Mar-04 10:33N 37°49' W 122°19'0 0.0
2015-Mar-04 09:33N 37°49' W 122°19'0 0.0
2015-Mar-04 08:33N 37°49' W 122°19'0 0.0
2015-Mar-04 07:33N 37°49' W 122°19'0 0.0
2015-Mar-04 06:33N 37°49' W 122°19'0 0.0
2015-Mar-04 05:33N 37°49' W 122°19'0 0.0
2015-Mar-04 04:33N 37°49' W 122°19'0 0.0
2015-Mar-04 03:33N 37°49' W 122°19'0 0.0
2015-Mar-04 02:33N 37°49' W 122°19'0 0.0
2015-Mar-04 01:33N 37°49' W 122°19'0 0.0
2015-Mar-04 00:33N 37°49' W 122°19'0 0.0
2015-Mar-03 23:33N 37°49' W 122°19'0 0.0
2015-Mar-03 22:33N 37°49' W 122°19'0 0.0
2015-Mar-03 21:33N 37°49' W 122°19'0 0.0
2015-Mar-03 20:33N 37°49' W 122°19'0 0.0
2015-Mar-03 19:33N 37°49' W 122°19'0 0.0
2015-Mar-03 18:33N 37°49' W 122°19'0 0.0
2015-Mar-03 17:33N 37°49' W 122°19'0 0.0
2015-Mar-03 16:33N 37°49' W 122°19'0 0.0
2015-Mar-03 15:33N 37°49' W 122°19'0 0.0
2015-Mar-03 14:13N 37°49' W 122°19'0 0.0
2015-Mar-03 13:33N 37°49' W 122°19'0 0.0
2015-Mar-03 12:33N 37°49' W 122°19'0 0.0
2015-Mar-03 11:33N 37°49' W 122°19'0 0.0
2015-Mar-03 10:33N 37°49' W 122°19'0 0.0
2015-Mar-03 09:33N 37°49' W 122°19'0 0.0
2015-Mar-03 08:33N 37°49' W 122°19'0 0.0
2015-Mar-03 07:33N 37°49' W 122°19'0 0.0
2015-Mar-03 06:33N 37°49' W 122°19'0 0.0
2015-Mar-03 05:33N 37°49' W 122°19'0 0.0
2015-Mar-03 04:33N 37°49' W 122°19'0 0.0
2015-Mar-03 03:33N 37°49' W 122°19'0 0.0
2015-Mar-03 02:33N 37°49' W 122°19'0 0.0
2015-Mar-03 01:33N 37°49' W 122°19'0 0.0
2015-Mar-03 00:33N 37°49' W 122°19'0 0.0
2015-Mar-02 23:33N 37°49' W 122°19'0 0.0
2015-Mar-02 22:33N 37°49' W 122°19'0 0.0
2015-Mar-02 21:33N 37°49' W 122°19'0 0.0
2015-Mar-02 20:33N 37°49' W 122°19'0 0.0
2015-Mar-02 19:33N 37°49' W 122°19'0 0.0
2015-Mar-02 18:33N 37°49' W 122°19'0 0.0
2015-Mar-02 17:33N 37°49' W 122°19'0 0.0
2015-Mar-02 16:33N 37°49' W 122°19'0 0.0
2015-Mar-02 15:33N 37°49' W 122°19'0 0.0
2015-Mar-02 14:33N 37°49' W 122°19'0 0.0
2015-Mar-02 13:33N 37°49' W 122°19'0 0.0
2015-Mar-02 12:33N 37°49' W 122°19'0 0.0
2015-Mar-02 11:33N 37°49' W 122°19'4 4.3
2015-Mar-02 10:33N 37°49' W 122°24'6 5.5
2015-Mar-02 09:31N 37°49' W 122°31'6 6.4
2015-Mar-02 08:32N 37°54' W 122°26'8 8.5
2015-Mar-02 07:33N 38°02' W 122°23'9 8.2
2015-Mar-02 06:25N 38°03' W 122°11'3 3.1
2015-Mar-02 05:33N 38°02' W 122°08'2 1.0
2015-Mar-02 03:27N 38°03' W 122°06'3 1.9
2015-Mar-02 02:05N 38°02' W 122°09'1 0.1
2015-Mar-01 17:31N 38°02' W 122°08'3 2.2
2015-Mar-01 16:18N 38°03' W 122°11'0 0.1
2015-Mar-01 11:32N 38°03' W 122°11'1 0.7
2015-Mar-01 09:30N 38°04' W 122°13'1 0.3
2015-Mar-01 04:13N 38°03' W 122°15'6 8.9
2015-Mar-01 03:30N 38°01' W 122°22'9 9.5
2015-Mar-01 02:32N 37°53' W 122°24'6 5.8
2015-Mar-01 01:33N 37°49' W 122°19'0 0.0
2015-Mar-01 00:33N 37°49' W 122°19'0 0.0
2015-Feb-28 23:33N 37°49' W 122°19'0 0.0
2015-Feb-28 22:33N 37°49' W 122°19'0 0.0
2015-Feb-28 21:33N 37°49' W 122°19'0 0.0
2015-Feb-28 20:33N 37°49' W 122°19'0 0.0
2015-Feb-28 19:33N 37°49' W 122°19'1 0.8
2015-Feb-28 18:33N 37°49' W 122°19'8 7.5
2015-Feb-28 17:32N 37°49' W 122°29'0 0.4
2015-Feb-28 16:32N 37°48' W 122°30'1 0.9
2015-Feb-28 15:33N 37°49' W 122°29'4 3.6
2015-Feb-28 14:33N 37°51' W 122°25'4 4.3
2015-Feb-28 13:33N 37°55' W 122°27'4 4.1
2015-Feb-28 12:31N 37°59' W 122°26'4 4.2
2015-Feb-28 11:33N 38°02' W 122°22'5 4.6
2015-Feb-28 10:33N 38°03' W 122°17'7 0.7
2015-Feb-28 01:12N 38°02' W 122°08'0 0.0
2015-Feb-27 12:25N 38°02' W 122°08'1 0.0
2015-Feb-26 19:09N 38°02' W 122°09'1 0.9
2015-Feb-26 17:28N 38°02' W 122°07'9 8.7
2015-Feb-26 16:30N 38°03' W 122°18'9 9.2
2015-Feb-26 15:33N 37°58' W 122°27'8 7.6
2015-Feb-26 14:33N 37°50' W 122°27'3 3.4
2015-Feb-26 13:33N 37°49' W 122°31'1 1.0
2015-Feb-26 12:33N 37°49' W 122°30'7 7.4
2015-Feb-26 11:33N 37°56' W 122°26'8 7.6
2015-Feb-26 10:33N 38°02' W 122°21'5 3.6
2015-Feb-26 09:12N 38°03' W 122°15'0 0.0
2015-Feb-26 06:25N 38°03' W 122°15'0 0.0
2015-Feb-26 05:33N 38°03' W 122°15'0 0.0
2015-Feb-26 04:33N 38°03' W 122°15'4 4.3
2015-Feb-26 03:31N 38°02' W 122°09'1 1.0
2015-Feb-26 02:26N 38°02' W 122°08'3 3.4
2015-Feb-26 01:33N 38°03' W 122°11'9 9.3
2015-Feb-26 00:33N 38°02' W 122°23'9 9.1
2015-Feb-25 23:33N 37°53' W 122°25'6 6.2
2015-Feb-25 22:32N 37°48' W 122°30'2 1.6
2015-Feb-25 21:33N 37°49' W 122°29'8 8.0
2015-Feb-25 20:33N 37°49' W 122°19'0 0.2
2015-Feb-25 19:33N 37°49' W 122°19'0 0.0
2015-Feb-25 18:33N 37°49' W 122°19'0 0.0
2015-Feb-25 17:33N 37°49' W 122°19'6 6.0
2015-Feb-25 16:33N 37°53' W 122°25'3 3.1
2015-Feb-25 15:33N 37°55' W 122°22'1 1.3
2015-Feb-25 14:33N 37°54' W 122°24'1 1.4
2015-Feb-25 13:33N 37°54' W 122°25'1 1.4
2015-Feb-25 12:33N 37°55' W 122°25'0 0.0
2015-Feb-25 11:33N 37°55' W 122°25'0 0.0
2015-Feb-25 10:33N 37°55' W 122°25'0 0.0
2015-Feb-25 09:33N 37°55' W 122°25'0 0.0
2015-Feb-25 08:33N 37°55' W 122°25'0 0.5
2015-Feb-25 07:33N 37°56' W 122°25'3 2.8
2015-Feb-25 06:33N 37°53' W 122°25'5 5.5
2015-Feb-25 05:33N 37°49' W 122°20'0 0.0
2015-Feb-25 04:33N 37°49' W 122°20'0 0.0
2015-Feb-25 03:33N 37°49' W 122°20'1 0.6
2015-Feb-25 02:34N 37°48' W 122°21'2 1.7
2015-Feb-25 01:33N 37°48' W 122°18'2 1.7
2015-Feb-25 00:33N 37°49' W 122°19'0 0.0
2015-Feb-24 23:34N 37°49' W 122°19'0 0.0
2015-Feb-24 22:33N 37°49' W 122°19'0 0.0
2015-Feb-24 21:33N 37°49' W 122°19'0 0.0
2015-Feb-24 20:33N 37°49' W 122°19'0 0.0
2015-Feb-24 19:33N 37°49' W 122°19'0 0.0
2015-Feb-24 18:33N 37°49' W 122°19'2 1.8
2015-Feb-24 17:33N 37°48' W 122°21'2 2.0
2015-Feb-24 16:33N 37°48' W 122°18'1 0.9
2015-Feb-24 15:33N 37°48' W 122°19'2 1.5
2015-Feb-24 14:33N 37°49' W 122°19'0 0.0
2015-Feb-24 13:33N 37°49' W 122°19'0 0.0
2015-Feb-24 12:33N 37°49' W 122°19'0 0.0
2015-Feb-24 11:33N 37°49' W 122°19'0 0.0
2015-Feb-24 10:33N 37°49' W 122°19'0 0.0
2015-Feb-24 09:33N 37°49' W 122°19'0 0.0
2015-Feb-24 08:33N 37°49' W 122°19'0 0.0
2015-Feb-24 07:33N 37°49' W 122°19'0 0.0
2015-Feb-24 06:33N 37°49' W 122°19'0 0.0
2015-Feb-24 05:33N 37°49' W 122°19'1 0.9
2015-Feb-24 04:33N 37°49' W 122°19'0 0.2
2015-Feb-24 03:33N 37°49' W 122°20'0 0.2
2015-Feb-24 02:33N 37°49' W 122°19'0 0.0
2015-Feb-24 01:33N 37°49' W 122°19'1 0.9
2015-Feb-24 00:33N 37°49' W 122°19'0 0.0
2015-Feb-23 23:33N 37°49' W 122°19'0 0.0
2015-Feb-23 22:33N 37°49' W 122°19'0 0.0
2015-Feb-23 21:33N 37°49' W 122°19'0 0.0
2015-Feb-23 20:33N 37°49' W 122°19'0 0.0
2015-Feb-23 19:33N 37°49' W 122°19'0 0.0
2015-Feb-23 18:33N 37°49' W 122°19'0 0.0
2015-Feb-23 17:33N 37°49' W 122°19'1 0.9
2015-Feb-23 16:33N 37°49' W 122°20'0 0.2
2015-Feb-23 15:33N 37°49' W 122°19'1 0.7
2015-Feb-23 14:33N 37°49' W 122°19'0 0.0
2015-Feb-23 13:33N 37°49' W 122°19'0 0.0
2015-Feb-23 12:33N 37°49' W 122°19'0 0.0
2015-Feb-23 11:33N 37°49' W 122°19'0 0.0
2015-Feb-23 10:33N 37°49' W 122°19'0 0.0
2015-Feb-23 09:33N 37°49' W 122°19'0 0.0
2015-Feb-23 08:33N 37°49' W 122°19'0 0.0
2015-Feb-23 07:33N 37°49' W 122°19'0 0.0
2015-Feb-23 06:33N 37°49' W 122°19'0 0.0
2015-Feb-23 05:33N 37°49' W 122°19'0 0.0
2015-Feb-23 04:33N 37°49' W 122°19'0 0.0
2015-Feb-23 03:33N 37°49' W 122°19'0 0.0
2015-Feb-23 02:33N 37°49' W 122°19'0 0.0
2015-Feb-23 01:33N 37°49' W 122°19'0 0.0
2015-Feb-23 00:33N 37°49' W 122°19'6 5.9
2015-Feb-22 23:33N 37°53' W 122°25'3 2.8
2015-Feb-22 22:33N 37°55' W 122°22'  

Dump ship's entire track history